Time;durP1;ratioP1;P1;durP2;ratioP2;P2;SDS_P1;SDS_P2;PMS_P1;PMS_P2;Temp;Humidity;BMP_temperature;BMP_pressure;BME280_temperature;BME280_humidity;BME280_pressure;Samples;Min_cycle;Max_cycle;Signal;HPM_P1;HPM_P2
2021/05/31 00:01:02;;;;;;;5.83;5.22;;;;;;;15.99;79.62;101134.19;1731257;83;21043;-78
2021/05/31 00:03:31;;;;;;;4.85;4.45;;;;;;;15.87;80.51;101132.09;1732533;83;20886;-85
2021/05/31 00:06:00;;;;;;;6.65;4.30;;;;;;;15.80;81.00;101130.91;1731840;83;20996;-80
2021/05/31 00:08:27;;;;;;;5.00;4.45;;;;;;;15.75;81.46;101137.84;1727860;83;21004;-82
2021/05/31 00:10:54;;;;;;;6.03;4.20;;;;;;;15.72;81.66;101133.33;1727804;83;21079;-81
2021/05/31 00:13:23;;;;;;;6.87;4.65;;;;;;;15.69;81.73;101125.73;1727725;83;21008;-76
2021/05/31 00:15:50;;;;;;;6.70;5.22;;;;;;;15.69;81.77;101127.03;1727866;83;21012;-77
2021/05/31 00:18:19;;;;;;;5.83;5.12;;;;;;;15.67;81.52;101128.92;1727104;83;21020;-80
2021/05/31 00:20:48;;;;;;;7.90;4.50;;;;;;;15.67;81.18;101135.46;1727436;83;21673;-75
2021/05/31 00:23:17;;;;;;;5.45;4.20;;;;;;;15.64;80.78;101140.47;1727465;83;21010;-81
2021/05/31 00:25:44;;;;;;;4.80;4.22;;;;;;;15.60;80.54;101140.34;1727242;83;21087;-74
2021/05/31 00:28:13;;;;;;;5.33;4.80;;;;;;;15.57;80.27;101141.90;1727100;83;21087;-79
2021/05/31 00:30:41;;;;;;;6.17;4.50;;;;;;;15.53;80.10;101140.50;1727343;83;21574;-79
2021/05/31 00:33:08;;;;;;;4.47;4.03;;;;;;;15.53;79.89;101143.59;1727035;83;21100;-82
2021/05/31 00:35:37;;;;;;;7.60;3.92;;;;;;;15.51;79.77;101145.00;1727298;83;21170;-81
2021/05/31 00:38:05;;;;;;;7.90;4.25;;;;;;;15.50;79.75;101142.05;1727544;83;21512;-83
2021/05/31 00:40:34;;;;;;;5.55;4.80;;;;;;;15.50;79.75;101139.91;1727525;83;21463;-78
2021/05/31 00:43:01;;;;;;;4.92;4.30;;;;;;;15.49;79.58;101140.38;1727399;83;21697;-83
2021/05/31 00:45:28;;;;;;;5.53;4.47;;;;;;;15.45;79.54;101135.47;1727306;83;21079;-75
2021/05/31 00:47:56;;;;;;;5.92;4.35;;;;;;;15.42;79.58;101135.23;1727476;83;21418;-76
2021/05/31 00:50:23;;;;;;;5.70;4.30;;;;;;;15.43;79.49;101128.23;1727292;83;21028;-74
2021/05/31 00:52:50;;;;;;;4.35;4.00;;;;;;;15.46;79.21;101125.37;1726933;83;20993;-78
2021/05/31 00:55:17;;;;;;;6.40;4.20;;;;;;;15.47;78.89;101127.05;1727001;83;21127;-78
2021/05/31 00:57:44;;;;;;;5.62;3.95;;;;;;;15.46;78.70;101134.53;1723203;83;21069;-76
2021/05/31 01:00:11;;;;;;;4.35;3.95;;;;;;;15.45;78.39;101140.70;1720552;83;21081;-81
2021/05/31 01:02:38;;;;;;;8.95;4.10;;;;;;;15.42;78.09;101137.02;1720541;83;21610;-73
2021/05/31 01:05:06;;;;;;;4.17;3.77;;;;;;;15.40;78.15;101133.23;1720827;83;21135;-79
2021/05/31 01:07:46;;;;;;;4.42;3.72;;;;;;;15.40;77.90;101126.69;1720917;83;21128;-79
2021/05/31 01:10:22;;;;;;;5.65;3.98;;;;;;;15.41;77.54;101127.53;1721023;83;20953;-79
2021/05/31 01:13:01;;;;;;;5.37;3.65;;;;;;;15.37;77.16;101125.63;1720549;83;21087;-77
2021/05/31 01:15:35;;;;;;;3.33;3.02;;;;;;;15.34;76.95;101132.41;1720828;83;20925;-77
2021/05/31 01:18:25;;;;;;;3.83;3.40;;;;;;;15.33;76.83;101135.97;1717746;83;21163;-75
2021/05/31 01:21:23;;;;;;;4.28;3.87;;;;;;;15.32;76.77;101134.30;1720108;83;21103;-77
2021/05/31 01:24:15;;;;;;;5.55;4.03;;;;;;;15.31;76.68;101131.34;1720543;83;21119;-76
2021/05/31 01:27:04;;;;;;;5.58;3.90;;;;;;;15.28;76.86;101139.43;1720493;83;21110;-78
2021/05/31 01:29:31;;;;;;;5.80;3.40;;;;;;;15.23;77.13;101131.93;1720730;83;21485;-80
2021/05/31 01:32:01;;;;;;;4.20;3.67;;;;;;;15.22;77.55;101125.53;1720776;83;21059;-77
2021/05/31 01:34:31;;;;;;;4.75;4.17;;;;;;;15.19;77.78;101130.97;1721065;83;21044;-79
2021/05/31 01:37:15;;;;;;;4.62;4.10;;;;;;;15.15;78.18;101131.70;1720753;83;21562;-83
2021/05/31 01:39:45;;;;;;;5.95;3.98;;;;;;;15.11;78.66;101132.89;1697538;83;21148;-79
2021/05/31 01:42:12;;;;;;;5.37;4.03;;;;;;;15.09;78.75;101130.05;1720410;83;21376;-84
2021/05/31 01:44:39;;;;;;;4.50;4.10;;;;;;;15.05;78.91;101131.22;1720506;83;20870;-81
2021/05/31 01:47:06;;;;;;;4.97;4.50;;;;;;;15.00;78.97;101134.17;1720341;83;21685;-80
2021/05/31 01:49:34;;;;;;;5.00;3.92;;;;;;;14.97;79.02;101134.87;1720662;83;21601;-79
2021/05/31 01:52:04;;;;;;;4.28;3.70;;;;;;;14.94;78.90;101135.95;1720805;83;21134;-77
2021/05/31 01:54:31;;;;;;;4.28;3.87;;;;;;;14.88;78.59;101133.81;1723226;83;21005;-79
2021/05/31 01:56:58;;;;;;;4.03;3.58;;;;;;;14.87;78.46;101139.98;1723756;83;21027;-79
2021/05/31 01:59:25;;;;;;;4.62;3.50;;;;;;;14.87;78.33;101143.09;1723175;83;21690;-75
2021/05/31 02:01:55;;;;;;;7.30;3.70;;;;;;;14.86;78.01;101139.64;1722979;83;21613;-80
2021/05/31 02:04:22;;;;;;;3.83;2.98;;;;;;;14.85;77.53;101128.82;1722012;83;21083;-77
2021/05/31 02:06:52;;;;;;;5.10;3.75;;;;;;;14.88;77.35;101126.44;1720436;83;21048;-76
2021/05/31 02:09:20;;;;;;;3.20;2.90;;;;;;;14.92;76.81;101125.27;1720177;83;21009;-82
2021/05/31 02:12:08;;;;;;;3.20;2.90;;;;;;;14.94;76.02;101126.81;1720468;83;21036;-76
2021/05/31 02:15:04;;;;;;;4.97;3.25;;;;;;;14.95;75.31;101123.25;1719870;83;21044;-75
2021/05/31 02:17:36;;;;;;;4.53;2.87;;;;;;;14.95;74.82;101121.95;1720640;83;21662;-74
2021/05/31 02:20:06;;;;;;;;;;;;;;;14.93;74.54;101125.64;1723401;83;21693;-79
2021/05/31 02:22:37;;;;;;;3.00;2.80;;;;;;;14.91;74.38;101127.52;1720770;83;20557;-80
2021/05/31 02:25:06;;;;;;;4.83;2.87;;;;;;;14.87;74.28;101125.61;1720660;83;21075;-75
2021/05/31 02:27:33;;;;;;;3.83;2.40;;;;;;;14.83;74.33;101121.12;1720696;83;21094;-80
2021/05/31 02:30:00;;;;;;;3.17;2.37;;;;;;;14.82;74.40;101123.36;1720369;83;21166;-74
2021/05/31 02:32:30;;;;;;;2.92;2.58;;;;;;;14.81;74.42;101122.16;1720563;83;21345;-80
2021/05/31 02:34:58;;;;;;;2.60;2.40;;;;;;;14.79;74.42;101130.13;1720278;83;21016;-79
2021/05/31 02:37:31;;;;;;;3.00;2.80;;;;;;;14.79;74.38;101127.98;1720900;83;21581;-75
2021/05/31 02:39:58;;;;;;;;;;;;;;;14.74;74.21;101128.83;1723133;82;21033;-82
2021/05/31 02:42:25;;;;;;;2.80;2.50;;;;;;;14.70;74.43;101129.99;1720747;83;21091;-76
2021/05/31 02:44:53;;;;;;;2.90;2.42;;;;;;;14.65;74.55;101126.88;1720459;83;21132;-74
2021/05/31 02:47:21;;;;;;;2.60;2.40;;;;;;;14.62;74.70;101130.56;1720422;83;20980;-80
2021/05/31 02:49:49;;;;;;;2.60;2.40;;;;;;;14.57;74.55;101124.87;1720339;83;21127;-77
2021/05/31 02:52:15;;;;;;;6.33;2.65;;;;;;;14.53;74.55;101131.26;1720430;83;21052;-79
2021/05/31 02:54:44;;;;;;;2.58;2.35;;;;;;;14.49;74.76;101126.37;1720693;83;21103;-76
2021/05/31 02:57:11;;;;;;;4.62;2.83;;;;;;;14.46;74.78;101122.68;1720179;83;21113;-73
2021/05/31 02:59:38;;;;;;;2.60;2.40;;;;;;;14.45;74.75;101115.34;1720209;83;21096;-82
2021/05/31 03:02:05;;;;;;;2.60;2.40;;;;;;;14.48;74.77;101110.36;1720335;83;21127;-77
2021/05/31 03:04:33;;;;;;;2.70;2.45;;;;;;;14.47;74.64;101110.83;1720762;83;21119;-74
2021/05/31 03:07:00;;;;;;;5.00;2.10;;;;;;;14.48;74.45;101105.14;1722273;83;21103;-77
2021/05/31 03:09:27;;;;;;;2.80;2.20;;;;;;;14.47;74.34;101116.05;1721511;83;21552;-78
2021/05/31 03:11:54;;;;;;;6.75;2.22;;;;;;;14.48;74.26;101112.97;1721820;83;20933;-73
2021/05/31 03:14:21;;;;;;;2.52;2.25;;;;;;;14.48;74.26;101107.75;1721991;83;21973;-77
2021/05/31 03:16:48;;;;;;;2.60;2.35;;;;;;;14.50;74.06;101110.59;1721583;83;21645;-76
2021/05/31 03:19:15;;;;;;;2.45;2.25;;;;;;;14.52;73.73;101110.00;1721702;83;21060;-73
2021/05/31 03:21:42;;;;;;;2.50;2.15;;;;;;;14.51;73.26;101108.35;1720598;83;21673;-75
2021/05/31 03:24:09;;;;;;;3.02;2.00;;;;;;;14.52;73.13;101111.30;1720769;83;21682;-83
2021/05/31 03:26:36;;;;;;;3.10;2.17;;;;;;;14.52;73.09;101111.30;1720502;83;21082;-74
2021/05/31 03:29:04;;;;;;;2.25;2.05;;;;;;;14.54;72.95;101115.95;1720352;83;21064;-75
2021/05/31 03:31:32;;;;;;;2.10;1.95;;;;;;;14.56;72.91;101115.36;1720959;83;21142;-81
2021/05/31 03:33:59;;;;;;;2.20;2.00;;;;;;;14.62;72.97;101116.20;1720312;83;21044;-73
2021/05/31 03:36:26;;;;;;;2.47;2.08;;;;;;;14.65;72.68;101121.66;1720515;83;21710;-81
2021/05/31 03:38:53;;;;;;;2.45;2.17;;;;;;;14.68;72.67;101129.27;1720557;83;21689;-76
2021/05/31 03:41:20;;;;;;;2.58;1.95;;;;;;;14.73;72.67;101132.37;1720638;83;21068;-81
2021/05/31 03:43:47;;;;;;;4.03;2.22;;;;;;;14.78;72.75;101137.60;1721019;83;21081;-82
2021/05/31 03:46:14;;;;;;;2.17;2.00;;;;;;;14.79;72.55;101132.74;1720587;83;21032;-74
2021/05/31 03:48:42;;;;;;;3.37;1.85;;;;;;;14.81;72.62;101139.14;1720755;83;21070;-80
2021/05/31 03:51:10;;;;;;;2.30;1.90;;;;;;;14.82;72.55;101136.43;1720933;83;21024;-75
2021/05/31 03:53:39;;;;;;;2.55;2.05;;;;;;;14.84;72.13;101144.13;1720936;83;21512;-73
2021/05/31 03:56:06;;;;;;;2.08;1.87;;;;;;;14.86;72.08;101137.03;1722766;83;21814;-76
2021/05/31 03:58:34;;;;;;;3.08;2.12;;;;;;;14.89;72.06;101134.18;1726016;83;21634;-74
2021/05/31 04:01:02;;;;;;;3.30;2.10;;;;;;;14.93;71.95;101130.86;1728337;83;20972;-75
2021/05/31 04:03:29;;;;;;;3.50;2.00;;;;;;;14.98;72.02;101118.26;1729003;83;21060;-75
2021/05/31 04:14:07;;;;;;;2.20;1.90;;;;;;;15.34;70.79;101104.95;1727418;83;21048;-74
2021/05/31 04:16:34;;;;;;;1.98;1.80;;;;;;;15.42;70.19;101103.86;1727225;83;21665;-73
2021/05/31 04:19:01;;;;;;;3.17;2.15;;;;;;;15.49;69.89;101097.70;1726907;83;21412;-79
2021/05/31 04:21:28;;;;;;;4.22;2.55;;;;;;;15.54;69.23;101098.98;1727149;83;21095;-80
2021/05/31 04:23:56;;;;;;;3.17;2.30;;;;;;;15.54;68.69;101097.67;1726904;83;21063;-73
2021/05/31 04:26:23;;;;;;;2.42;1.82;;;;;;;15.53;68.65;101097.81;1727255;83;21079;-78
2021/05/31 04:28:50;;;;;;;3.75;1.87;;;;;;;15.55;68.62;101106.36;1727477;83;21103;-77
2021/05/31 04:31:17;;;;;;;2.22;2.02;;;;;;;15.49;68.64;101101.15;1727564;83;21566;-73
2021/05/31 04:33:44;;;;;;;3.12;2.00;;;;;;;15.47;68.96;101103.50;1727304;83;21150;-75
2021/05/31 04:36:11;;;;;;;5.22;2.20;;;;;;;15.43;68.80;101106.00;1727455;83;20988;-72
2021/05/31 04:38:39;;;;;;;6.22;2.10;;;;;;;15.44;69.22;101107.67;1727271;83;21547;-75
2021/05/31 04:41:08;;;;;;;5.10;2.20;;;;;;;15.48;69.16;101098.64;1727350;83;21004;-74
2021/05/31 04:43:36;;;;;;;3.45;2.00;;;;;;;15.51;69.22;101095.31;1727124;83;21024;-78
2021/05/31 04:46:04;;;;;;;3.15;2.15;;;;;;;15.54;69.02;101096.88;1726851;83;21051;-72
2021/05/31 04:48:33;;;;;;;2.35;2.00;;;;;;;15.57;68.92;101100.05;1727239;83;21059;-76
2021/05/31 04:51:01;;;;;;;5.58;2.10;;;;;;;15.61;68.97;101105.87;1727140;83;21112;-81
2021/05/31 04:53:30;;;;;;;3.05;1.90;;;;;;;15.65;68.93;101103.38;1727079;83;21055;-75
2021/05/31 04:55:58;;;;;;;3.70;2.30;;;;;;;15.70;68.97;101105.13;1727472;83;21075;-75
2021/05/31 04:58:25;;;;;;;2.55;2.20;;;;;;;15.77;68.68;101105.00;1727272;83;21085;-83
2021/05/31 05:00:53;;;;;;;1.85;1.75;;;;;;;15.79;68.54;101108.34;1726990;83;21059;-76
2021/05/31 05:03:20;;;;;;;2.67;2.00;;;;;;;15.78;68.19;101104.89;1727245;83;21016;-76
2021/05/31 05:05:48;;;;;;;3.17;1.72;;;;;;;15.76;68.60;101100.73;1727508;83;21008;-75
2021/05/31 05:08:16;;;;;;;2.90;2.05;;;;;;;15.80;68.64;101100.34;1727219;83;21104;-76
2021/05/31 05:10:43;;;;;;;2.40;1.85;;;;;;;15.85;68.29;101092.97;1726778;83;21909;-76
2021/05/31 05:13:10;;;;;;;2.22;1.90;;;;;;;15.88;67.72;101096.65;1726865;83;21579;-78
2021/05/31 05:15:39;;;;;;;7.85;2.08;;;;;;;15.92;67.62;101102.94;1727072;83;21638;-73
2021/05/31 05:18:07;;;;;;;2.92;1.80;;;;;;;15.88;67.75;101106.28;1726931;83;21166;-77
2021/05/31 05:20:34;;;;;;;4.22;2.17;;;;;;;15.88;68.03;101107.59;1727392;83;21067;-74
2021/05/31 05:23:01;;;;;;;3.05;2.75;;;;;;;15.86;68.23;101103.77;1727505;83;21081;-84
2021/05/31 05:25:28;;;;;;;3.65;2.72;;;;;;;15.87;68.53;101113.77;1727621;83;21013;-78
2021/05/31 05:27:55;;;;;;;7.17;2.80;;;;;;;15.80;68.89;101109.98;1727164;83;21035;-77
2021/05/31 05:30:25;;;;;;;3.58;2.42;;;;;;;15.75;69.23;101110.84;1727233;83;21100;-75
2021/05/31 05:32:59;;;;;;;2.33;2.05;;;;;;;15.72;68.95;101111.09;1727455;83;21008;-72
2021/05/31 05:35:35;;;;;;;2.20;1.45;;;;;;;15.71;68.63;101108.11;1726475;83;21107;-73
2021/05/31 05:43:08;;;;;;;13.43;4.08;;;;;;;15.81;68.24;101092.86;1726933;83;21135;-71
2021/05/31 05:48:13;;;;;;;17.48;9.80;;;;;;;15.92;68.50;101096.40;1727574;83;22023;-73
2021/05/31 05:50:40;;;;;;;49.90;26.40;;;;;;;15.99;68.51;101098.37;1727141;83;21626;-72
2021/05/31 05:53:07;;;;;;;21.87;11.83;;;;;;;16.05;68.38;101087.39;1732043;82;21139;-72
2021/05/31 05:55:34;;;;;;;8.38;2.92;;;;;;;16.13;67.46;101091.55;1732895;82;20988;-76
2021/05/31 05:58:01;;;;;;;19.20;10.85;;;;;;;16.10;67.20;101084.41;1733662;82;21346;-76
2021/05/31 06:00:29;;;;;;;21.25;8.35;;;;;;;16.11;67.40;101089.54;1733517;82;21092;-74
2021/05/31 06:02:56;;;;;;;19.45;8.88;;;;;;;16.11;67.54;101090.84;1732290;82;21106;-82
2021/05/31 06:05:23;;;;;;;18.05;8.03;;;;;;;16.15;67.34;101092.70;1732779;81;21158;-81
2021/05/31 06:07:52;;;;;;;7.87;2.42;;;;;;;16.19;67.11;101090.20;1731628;81;21171;-76
2021/05/31 06:10:21;;;;;;;13.70;7.35;;;;;;;16.17;66.68;101095.58;1731638;81;21063;-71
2021/05/31 06:12:48;;;;;;;12.53;6.20;;;;;;;16.15;67.06;101090.92;1731220;81;21118;-73
2021/05/31 06:15:15;;;;;;;9.78;4.62;;;;;;;16.21;67.11;101092.23;1731291;81;21597;-79
2021/05/31 06:17:45;;;;;;;2.83;2.15;;;;;;;16.23;66.75;101099.00;1731707;81;21125;-78
2021/05/31 06:20:12;;;;;;;7.60;2.27;;;;;;;16.18;66.26;101097.22;1731714;81;21092;-72
2021/05/31 06:22:40;;;;;;;4.10;1.85;;;;;;;16.18;66.06;101086.74;1732097;82;21155;-80
2021/05/31 06:25:12;;;;;;;6.40;2.62;;;;;;;16.24;65.84;101084.13;1731953;82;21082;-76
2021/05/31 06:27:39;;;;;;;3.43;2.20;;;;;;;16.32;65.79;101089.53;1732072;82;21455;-77
2021/05/31 06:30:08;;;;;;;5.37;2.77;;;;;;;16.39;65.77;101086.29;1732239;81;21116;-78
2021/05/31 06:32:35;;;;;;;2.42;1.62;;;;;;;16.41;65.81;101094.84;1731822;81;21174;-73
2021/05/31 06:35:02;;;;;;;2.27;1.65;;;;;;;16.39;65.24;101084.98;1731857;81;21657;-76
2021/05/31 06:37:31;;;;;;;3.30;1.75;;;;;;;16.36;65.41;101085.23;1732358;82;21090;-78
2021/05/31 06:39:59;;;;;;;4.37;1.87;;;;;;;16.38;65.49;101084.63;1731500;81;21063;-77
2021/05/31 06:42:26;;;;;;;5.72;1.60;;;;;;;16.41;65.48;101080.91;1731722;82;20981;-77
2021/05/31 06:45:24;;;;;;;3.55;1.60;;;;;;;16.40;65.22;101081.38;1731223;81;21172;-77
2021/05/31 06:47:53;;;;;;;7.25;2.35;;;;;;;16.43;65.18;101073.77;1731579;81;21131;-72
2021/05/31 06:50:20;;;;;;;3.83;2.50;;;;;;;16.47;65.02;101070.38;1731838;81;21658;-72
2021/05/31 06:52:48;;;;;;;5.12;2.10;;;;;;;16.55;64.59;101069.31;1731395;82;21171;-81
2021/05/31 06:55:17;;;;;;;2.37;1.50;;;;;;;16.66;64.30;101070.05;1731737;82;21007;-75
2021/05/31 06:57:50;;;;;;;7.47;2.20;;;;;;;16.72;64.19;101068.72;1731651;81;21131;-72
2021/05/31 07:00:21;;;;;;;2.67;1.57;;;;;;;16.72;63.54;101074.77;1731641;81;21118;-76
2021/05/31 07:02:49;;;;;;;6.40;2.17;;;;;;;16.71;63.35;101072.30;1731617;82;21125;-80
2021/05/31 07:05:16;;;;;;;8.68;2.55;;;;;;;16.72;63.54;101077.39;1731418;82;21059;-75
2021/05/31 07:07:43;;;;;;;3.25;1.90;;;;;;;16.73;63.55;101077.75;1731509;82;21074;-76
2021/05/31 07:10:14;;;;;;;4.28;1.77;;;;;;;16.74;63.95;101085.97;1731495;82;21138;-74
2021/05/31 07:12:42;;;;;;;2.90;1.55;;;;;;;16.66;64.55;101080.53;1731909;82;21087;-74
2021/05/31 07:15:14;;;;;;;5.67;2.42;;;;;;;16.59;64.82;101082.00;1731987;82;21866;-85
2021/05/31 07:17:51;;;;;;;3.58;2.10;;;;;;;16.56;65.42;101084.08;1731470;82;21337;-73
2021/05/31 07:20:22;;;;;;;5.15;2.10;;;;;;;16.53;65.87;101081.69;1731596;82;21617;-75
2021/05/31 07:22:51;;;;;;;11.85;2.65;;;;;;;16.51;65.43;101080.97;1731866;82;21019;-79
2021/05/31 07:25:18;;;;;;;8.60;2.47;;;;;;;16.52;65.87;101080.02;1732016;82;21091;-74
2021/05/31 07:27:47;;;;;;;5.37;2.27;;;;;;;16.51;65.73;101083.59;1732177;82;21027;-80
2021/05/31 07:30:19;;;;;;;7.12;2.10;;;;;;;16.49;65.65;101085.05;1731725;82;21047;-80
2021/05/31 07:32:46;;;;;;;5.00;2.50;;;;;;;16.45;65.97;101088.87;1732058;82;21495;-74
2021/05/31 07:35:14;;;;;;;2.75;1.67;;;;;;;16.40;66.13;101090.55;1731475;82;21076;-74
2021/05/31 07:37:41;;;;;;;8.03;2.40;;;;;;;16.35;66.02;101087.50;1731838;82;21396;-75
2021/05/31 07:40:12;;;;;;;5.40;1.95;;;;;;;16.32;66.20;101088.23;1731356;82;21274;-82
2021/05/31 07:42:39;;;;;;;5.45;1.70;;;;;;;16.34;66.01;101083.68;1731794;82;20897;-77
2021/05/31 07:45:07;;;;;;;3.40;1.92;;;;;;;16.37;65.92;101084.73;1731671;82;21090;-75
2021/05/31 07:47:35;;;;;;;1.82;1.30;;;;;;;16.37;65.79;101088.19;1732401;82;20997;-81
2021/05/31 07:50:04;;;;;;;3.02;1.70;;;;;;;16.40;66.45;101087.09;1732788;82;21110;-72
2021/05/31 07:52:31;;;;;;;4.92;1.27;;;;;;;16.41;66.84;101087.45;1732885;82;21078;-72
2021/05/31 07:54:58;;;;;;;4.10;1.27;;;;;;;16.34;67.30;101083.20;1732788;82;21080;-82
2021/05/31 07:57:27;;;;;;;6.95;1.92;;;;;;;16.27;68.53;101087.28;1731870;82;20987;-78
2021/05/31 07:59:54;;;;;;;1.20;1.10;;;;;;;16.20;69.47;101091.39;1730664;82;21088;-77
2021/05/31 08:02:23;;;;;;;3.87;2.50;;;;;;;16.16;69.16;101087.83;1730163;82;21099;-73
2021/05/31 08:04:50;;;;;;;2.45;1.32;;;;;;;16.14;69.81;101084.52;1730667;82;21085;-80
2021/05/31 08:07:17;;;;;;;1.42;1.20;;;;;;;16.14;69.58;101092.38;1729948;81;21079;-74
2021/05/31 08:09:48;;;;;;;3.50;1.65;;;;;;;16.13;69.20;101099.39;1730040;82;21063;-79
2021/05/31 08:12:15;;;;;;;7.12;1.42;;;;;;;16.08;69.79;101095.00;1730631;82;20960;-82
2021/05/31 08:14:42;;;;;;;2.95;1.57;;;;;;;16.05;70.87;101097.87;1730679;82;21008;-82
2021/05/31 08:17:11;;;;;;;8.08;1.35;;;;;;;16.03;72.30;101100.27;1730286;82;21458;-75
2021/05/31 08:19:40;;;;;;;2.15;1.47;;;;;;;16.01;72.73;101103.02;1730247;82;21684;-74
2021/05/31 08:22:09;;;;;;;3.42;1.50;;;;;;;15.94;73.40;101102.33;1730568;82;21035;-74
2021/05/31 08:24:36;;;;;;;7.08;1.72;;;;;;;15.81;74.84;101103.80;1730350;82;21039;-70
2021/05/31 08:27:05;;;;;;;2.27;1.62;;;;;;;15.68;76.26;101103.95;1730095;82;21083;-71
2021/05/31 08:29:33;;;;;;;2.62;1.62;;;;;;;15.44;77.51;101107.20;1730140;82;21633;-79
2021/05/31 08:32:01;;;;;;;2.10;1.77;;;;;;;15.15;79.42;101102.11;1730050;81;21170;-77
2021/05/31 08:34:29;;;;;;;1.50;1.35;;;;;;;14.93;81.64;101105.56;1729800;82;21106;-69
2021/05/31 08:36:57;;;;;;;1.75;1.65;;;;;;;14.73;82.57;101112.78;1729184;81;21138;-74
2021/05/31 08:39:24;;;;;;;2.17;1.70;;;;;;;14.58;84.31;101118.67;1730331;82;21649;-73
2021/05/31 08:41:52;;;;;;;2.67;1.87;;;;;;;14.51;85.65;101108.83;1730326;82;21489;-69
2021/05/31 08:44:19;;;;;;;1.92;1.70;;;;;;;14.45;86.18;101110.12;1730250;82;21088;-78
2021/05/31 08:46:47;;;;;;;3.33;2.33;;;;;;;14.45;87.10;101119.73;1730371;82;21369;-74
2021/05/31 08:49:14;;;;;;;3.15;1.67;;;;;;;14.47;87.72;101121.74;1730751;82;21052;-73
2021/05/31 08:51:41;;;;;;;5.50;2.00;;;;;;;14.50;87.73;101122.81;1730656;82;21033;-74
2021/05/31 08:54:08;;;;;;;2.45;2.05;;;;;;;14.47;87.15;101125.19;1729857;82;21677;-71
2021/05/31 08:56:36;;;;;;;3.80;2.00;;;;;;;14.44;86.90;101122.81;1730106;82;21652;-73
2021/05/31 08:59:04;;;;;;;7.17;3.05;;;;;;;14.44;87.45;101125.42;1730096;82;21020;-71
2021/05/31 09:01:32;;;;;;;6.60;2.47;;;;;;;14.45;88.30;101123.18;1731541;82;21131;-78
2021/05/31 09:03:59;;;;;;;4.90;2.40;;;;;;;14.42;90.04;101126.49;1731505;82;21055;-75
2021/05/31 09:06:29;;;;;;;6.47;2.30;;;;;;;14.30;91.07;101123.80;1725366;82;21916;-72
2021/05/31 09:09:00;;;;;;;2.80;2.47;;;;;;;14.24;91.83;101126.86;1726651;83;21079;-71
2021/05/31 09:11:29;;;;;;;2.77;2.15;;;;;;;14.24;92.25;101128.64;1726592;83;21087;-71
2021/05/31 09:13:58;;;;;;;2.45;2.25;;;;;;;14.21;91.50;101131.01;1726588;83;21293;-77
2021/05/31 09:16:27;;;;;;;2.55;2.27;;;;;;;14.20;91.34;101128.50;1726383;83;21067;-78
2021/05/31 09:18:57;;;;;;;2.80;2.60;;;;;;;14.24;91.87;101120.80;1726733;83;21182;-72
2021/05/31 09:21:34;;;;;;;3.40;1.95;;;;;;;14.27;91.05;101127.10;1697362;83;38532;-70
2021/05/31 09:24:05;;;;;;;2.30;2.05;;;;;;;14.24;90.65;101128.64;1726699;83;21082;-75
2021/05/31 09:26:51;;;;;;;2.20;1.98;;;;;;;14.24;90.95;101126.86;1733726;82;21094;-68
2021/05/31 09:29:20;;;;;;;5.53;2.33;;;;;;;14.32;91.85;101122.39;1733873;82;21075;-78
2021/05/31 09:32:05;;;;;;;2.70;2.40;;;;;;;14.41;91.98;101128.27;1718650;82;21193;-74
2021/05/31 09:34:33;;;;;;;2.75;2.55;;;;;;;14.51;92.37;101120.58;1701454;83;21111;-71
2021/05/31 09:37:02;;;;;;;6.25;3.40;;;;;;;14.55;92.18;101126.74;1697478;83;21092;-73
2021/05/31 09:39:40;;;;;;;4.20;3.22;;;;;;;14.58;93.18;101129.13;1702993;83;21113;-80
2021/05/31 09:42:15;;;;;;;4.15;3.40;;;;;;;14.60;94.08;101129.86;1711820;83;21671;-81
2021/05/31 09:44:48;;;;;;;4.75;3.30;;;;;;;14.55;94.59;101129.35;1712857;83;21194;-71
2021/05/31 09:47:17;;;;;;;4.42;3.40;;;;;;;14.41;95.76;101125.66;1680005;83;21102;-73
2021/05/31 09:49:44;;;;;;;4.58;3.55;;;;;;;14.29;96.22;101126.04;1680718;83;21092;-73
2021/05/31 09:52:13;;;;;;;6.87;3.30;;;;;;;14.23;96.60;101118.66;1710048;83;21013;-77
2021/05/31 09:54:47;;;;;;;4.42;4.03;;;;;;;14.20;97.28;101113.67;1709286;83;21173;-80
2021/05/31 09:57:26;;;;;;;3.45;3.15;;;;;;;14.18;97.67;101112.96;1708631;83;21803;-80
2021/05/31 10:00:03;;;;;;;3.75;3.25;;;;;;;14.18;98.57;101116.04;1702118;82;21054;-77
2021/05/31 10:08:02;;;;;;;4.17;3.77;;;;;;;14.07;99.82;101108.98;1715238;83;20981;-74
2021/05/31 10:10:27;;;;;;;3.92;3.60;;;;;;;14.04;100.00;101107.11;1715061;82;20981;-76
2021/05/31 10:12:58;;;;;;;6.33;3.17;;;;;;;14.02;100.00;101108.97;1715098;83;21609;-79
2021/05/31 10:15:29;;;;;;;4.45;3.58;;;;;;;14.00;100.00;101105.19;1714885;83;21111;-73
2021/05/31 10:17:59;;;;;;;5.07;3.90;;;;;;;13.98;100.00;101108.36;1715178;83;21099;-77
2021/05/31 10:20:28;;;;;;;3.90;3.58;;;;;;;13.95;100.00;101101.23;1715031;83;21108;-73
2021/05/31 10:22:57;;;;;;;3.67;3.33;;;;;;;13.91;100.00;101096.70;1715565;83;21897;-76
2021/05/31 10:25:27;;;;;;;3.10;2.90;;;;;;;13.88;100.00;101095.63;1715164;83;21116;-76
2021/05/31 10:28:04;;;;;;;3.30;3.10;;;;;;;13.87;100.00;101097.89;1691246;83;21092;-79
2021/05/31 10:30:40;;;;;;;3.47;3.17;;;;;;;13.86;100.00;101100.12;1714506;83;21052;-75
2021/05/31 10:33:21;;;;;;;3.75;2.87;;;;;;;13.87;100.00;101103.11;1715301;83;21136;-78
2021/05/31 10:35:50;;;;;;;3.17;2.72;;;;;;;13.87;100.00;101103.58;1715527;83;21677;-79
2021/05/31 10:38:19;;;;;;;3.65;2.98;;;;;;;13.88;100.00;101105.25;1715562;83;21614;-75
2021/05/31 10:40:54;;;;;;;3.83;2.75;;;;;;;13.88;100.00;101101.34;1715374;83;21016;-74
2021/05/31 10:43:24;;;;;;;4.50;2.72;;;;;;;13.85;100.00;101104.98;1715209;83;21267;-77
2021/05/31 10:46:04;;;;;;;3.37;3.10;;;;;;;13.86;100.00;101104.05;1715369;83;21080;-78
2021/05/31 10:48:46;;;;;;;4.12;3.72;;;;;;;13.85;100.00;101103.67;1715345;83;21065;-77
2021/05/31 10:51:17;;;;;;;3.98;3.47;;;;;;;13.83;100.00;101106.88;1715195;83;21113;-73
2021/05/31 10:53:46;;;;;;;7.05;2.75;;;;;;;13.86;100.00;101113.64;1714812;83;21079;-73
2021/05/31 10:56:26;;;;;;;3.30;3.00;;;;;;;13.86;100.00;101105.34;1715196;83;21610;-72
2021/05/31 10:58:57;;;;;;;5.45;2.85;;;;;;;13.90;100.00;101109.41;1714525;83;20997;-70
2021/05/31 11:01:35;;;;;;;2.95;2.67;;;;;;;13.95;100.00;101111.66;1715606;82;21641;-69
2021/05/31 11:04:22;;;;;;;3.17;2.60;;;;;;;14.00;100.00;101116.09;1715117;83;21674;-78
2021/05/31 11:06:51;;;;;;;2.40;2.20;;;;;;;14.00;100.00;101111.71;1715281;83;21394;-75
2021/05/31 11:09:24;;;;;;;2.83;2.55;;;;;;;13.93;100.00;101110.48;1715280;83;21077;-78
2021/05/31 11:11:56;;;;;;;5.90;2.60;;;;;;;13.87;100.00;101110.09;1714924;83;21175;-79
2021/05/31 11:14:47;;;;;;;2.58;2.37;;;;;;;13.82;100.00;101109.58;1715141;83;21093;-78
2021/05/31 11:17:17;;;;;;;4.28;2.62;;;;;;;13.71;100.00;101109.91;1714906;83;21623;-79
2021/05/31 11:19:50;;;;;;;4.00;2.55;;;;;;;13.60;100.00;101103.31;1714904;83;21017;-82
2021/05/31 11:22:28;;;;;;;2.43;2.00;;;;;;;13.57;100.00;101100.09;1714270;83;21156;-75
2021/05/31 11:25:00;;;;;;;2.50;2.30;;;;;;;13.54;100.00;101104.22;1715181;83;21080;-77
2021/05/31 11:27:36;;;;;;;3.85;2.27;;;;;;;13.48;100.00;101109.87;1715952;83;21088;-78
2021/05/31 11:30:18;;;;;;;2.98;2.77;;;;;;;13.40;100.00;101108.29;1716141;83;21025;-75
2021/05/31 11:32:46;;;;;;;2.92;2.62;;;;;;;13.37;100.00;101108.02;1715852;83;21076;-75
2021/05/31 11:35:14;;;;;;;3.72;2.37;;;;;;;13.38;100.00;101105.78;1715767;83;20996;-75
2021/05/31 11:37:46;;;;;;;6.00;2.98;;;;;;;13.32;100.00;101106.21;1715283;83;21036;-78
2021/05/31 11:40:26;;;;;;;4.35;2.50;;;;;;;13.25;100.00;101113.62;1715281;83;21676;-83
2021/05/31 11:42:55;;;;;;;6.55;3.80;;;;;;;13.19;100.00;101111.45;1715650;83;21076;-78
2021/05/31 11:45:25;;;;;;;5.70;2.83;;;;;;;13.14;100.00;101120.07;1691142;83;21079;-82
2021/05/31 11:47:59;;;;;;;4.30;2.85;;;;;;;13.13;100.00;101125.37;1715077;83;21136;-73
2021/05/31 11:50:28;;;;;;;2.90;2.70;;;;;;;13.10;100.00;101131.64;1708072;83;21120;-82
2021/05/31 11:52:56;;;;;;;3.25;2.50;;;;;;;13.05;100.00;101125.05;1715167;83;21551;-77
2021/05/31 11:55:26;;;;;;;2.75;2.40;;;;;;;12.95;100.00;101135.27;1715323;83;21058;-80
2021/05/31 11:57:55;;;;;;;2.62;2.27;;;;;;;12.89;100.00;101123.12;1715607;83;21064;-74